createdAt,value
2023-02-02T00:01:31.850Z,1.00
2023-02-02T00:04:00.304Z,1.00
2023-02-02T00:06:29.724Z,3.60
2023-02-02T00:09:03.315Z,23.30
2023-02-02T00:11:30.967Z,40.00
2023-02-02T00:13:58.707Z,50.50
2023-02-02T00:16:26.578Z,47.70
2023-02-02T00:18:59.663Z,53.60
2023-02-02T00:21:28.010Z,54.90
2023-02-02T00:23:55.909Z,50.60
2023-02-02T00:26:23.823Z,58.20
2023-02-02T00:28:52.440Z,54.30
2023-02-02T00:31:20.071Z,55.50
2023-02-02T00:33:49.176Z,63.70
2023-02-02T00:36:17.746Z,77.20
2023-02-02T00:38:46.731Z,98.60
2023-02-02T00:41:14.517Z,98.90
2023-02-02T00:43:42.521Z,99.90
2023-02-02T00:46:14.887Z,99.90
2023-02-02T00:48:42.587Z,99.90
2023-02-02T00:51:12.899Z,99.90
2023-02-02T00:53:40.499Z,99.90
2023-02-02T00:56:09.558Z,99.90
2023-02-02T00:58:37.154Z,99.90
2023-02-02T01:01:05.416Z,99.90
2023-02-02T01:03:33.017Z,99.90
2023-02-02T01:06:00.629Z,99.90
2023-02-02T01:08:28.226Z,99.90
2023-02-02T01:11:00.041Z,99.90
2023-02-02T01:13:27.802Z,99.90
2023-02-02T01:15:56.885Z,99.90
2023-02-02T01:18:24.808Z,99.90
2023-02-02T01:21:04.208Z,99.90
2023-02-02T01:23:33.533Z,99.90
2023-02-02T01:26:03.140Z,99.90
2023-02-02T01:28:30.981Z,99.90
2023-02-02T01:30:59.214Z,99.90
2023-02-02T01:33:26.847Z,99.90
2023-02-02T01:35:56.120Z,99.90
2023-02-02T01:38:24.621Z,99.90
2023-02-02T01:40:55.478Z,99.90
2023-02-02T01:43:49.456Z,99.90
2023-02-02T01:46:27.354Z,99.90
2023-02-02T01:48:57.836Z,99.90
2023-02-02T01:51:53.843Z,99.90
2023-02-02T01:54:39.126Z,99.90
2023-02-02T01:57:22.444Z,99.90
2023-02-02T01:59:52.590Z,96.60
2023-02-02T02:02:22.995Z,94.20
2023-02-02T02:04:51.140Z,97.40
2023-02-02T02:07:18.902Z,99.90
2023-02-02T02:09:46.623Z,96.60
2023-02-02T02:12:15.629Z,93.50
2023-02-02T02:15:04.697Z,92.20
2023-02-02T02:17:51.753Z,91.00
2023-02-02T02:21:22.974Z,78.80
2023-02-02T02:24:34.183Z,79.90
2023-02-02T02:27:46.052Z,73.80
2023-02-02T02:30:32.359Z,66.00
2023-02-02T02:33:02.917Z,58.80
2023-02-02T02:36:01.456Z,60.60
2023-02-02T02:38:37.763Z,56.50
2023-02-02T02:41:12.471Z,41.40
2023-02-02T02:43:52.609Z,39.80
2023-02-02T02:46:21.798Z,32.50
2023-02-02T02:48:50.395Z,29.80
2023-02-02T02:51:47.770Z,30.00
2023-02-02T02:54:32.946Z,33.60
2023-02-02T02:57:10.957Z,32.20
2023-02-02T02:59:53.236Z,36.30
2023-02-02T03:02:54.780Z,39.00
2023-02-02T03:05:25.999Z,48.80
2023-02-02T03:13:31.603Z,41.90
2023-02-02T03:16:00.013Z,38.80
2023-02-02T03:18:32.366Z,45.20
2023-02-02T03:21:02.730Z,38.20
2023-02-02T03:23:30.556Z,38.40
2023-02-02T03:25:58.260Z,41.40
2023-02-02T03:28:26.189Z,53.40
2023-02-02T03:30:55.107Z,76.40
2023-02-02T03:33:23.335Z,83.50
2023-02-02T03:35:50.989Z,91.00
2023-02-02T03:38:18.688Z,81.80
2023-02-02T03:40:46.302Z,74.60
2023-02-02T03:43:16.517Z,67.20
2023-02-02T03:45:44.122Z,71.70
2023-02-02T03:48:14.450Z,84.60
2023-02-02T03:50:42.054Z,87.30
2023-02-02T03:53:09.758Z,94.80
2023-02-02T03:55:41.503Z,85.40
2023-02-02T03:58:09.150Z,92.90
2023-02-02T04:00:37.088Z,94.40
2023-02-02T04:03:04.720Z,92.00
2023-02-02T04:05:35.127Z,90.70
2023-02-02T04:08:02.896Z,85.90
2023-02-02T04:10:30.542Z,80.70
2023-02-02T04:12:58.176Z,79.90
2023-02-02T04:15:26.029Z,85.30
2023-02-02T04:17:57.653Z,82.40
2023-02-02T04:20:25.246Z,80.70
2023-02-02T04:22:54.629Z,77.40
2023-02-02T04:25:22.406Z,59.20
2023-02-02T04:27:50.232Z,49.50
2023-02-02T04:30:19.944Z,59.80
2023-02-02T04:32:47.545Z,65.00
2023-02-02T04:35:21.075Z,62.00
2023-02-02T04:37:49.130Z,52.70
2023-02-02T04:40:16.887Z,50.70
2023-02-02T04:42:45.277Z,48.40
2023-02-02T04:45:12.979Z,54.10
2023-02-02T04:47:40.649Z,63.50
2023-02-02T04:50:10.406Z,65.10
2023-02-02T04:52:38.203Z,68.10
2023-02-02T04:55:06.098Z,57.40
2023-02-02T04:57:34.821Z,56.30
2023-02-02T05:00:02.719Z,61.90
2023-02-02T05:02:30.407Z,74.40
2023-02-02T05:04:58.107Z,69.20
2023-02-02T05:07:27.806Z,77.60
2023-02-02T05:09:55.346Z,89.50
2023-02-02T05:12:22.974Z,93.20
2023-02-02T05:14:50.732Z,86.00
2023-02-02T05:17:18.365Z,91.00
2023-02-02T05:19:48.019Z,92.80
2023-02-02T05:22:15.639Z,94.80
2023-02-02T05:24:43.253Z,98.50
2023-02-02T05:27:10.863Z,97.50
2023-02-02T05:29:38.490Z,95.10
2023-02-02T05:32:06.204Z,89.30
2023-02-02T05:34:36.538Z,86.30
2023-02-02T05:37:04.153Z,84.20
2023-02-02T05:39:31.850Z,66.90
2023-02-02T05:41:59.524Z,65.60
2023-02-02T05:44:27.330Z,65.00
2023-02-02T05:46:55.034Z,60.00
2023-02-02T05:49:22.726Z,51.40
2023-02-02T05:51:59.237Z,62.70
2023-02-02T05:54:26.871Z,62.10
2023-02-02T05:56:55.800Z,71.10
2023-02-02T05:59:24.229Z,74.30
2023-02-02T06:01:51.918Z,76.30
2023-02-02T06:04:19.531Z,90.80
2023-02-02T06:06:47.990Z,83.80
2023-02-02T06:09:15.757Z,91.40
2023-02-02T06:11:44.798Z,94.60
2023-02-02T06:14:12.816Z,92.10
2023-02-02T06:16:40.449Z,95.50
2023-02-02T06:19:08.420Z,95.00
2023-02-02T06:21:36.171Z,99.90
2023-02-02T06:24:04.292Z,99.90
2023-02-02T06:26:32.036Z,96.40
2023-02-02T06:28:59.661Z,96.80
2023-02-02T06:31:27.484Z,94.00
2023-02-02T06:33:57.788Z,92.60
2023-02-02T06:36:27.337Z,92.00
2023-02-02T06:38:56.963Z,67.00
2023-02-02T06:41:24.952Z,47.10
2023-02-02T06:43:52.772Z,42.60
2023-02-02T06:46:20.980Z,40.30
2023-02-02T06:48:48.720Z,38.10
2023-02-02T06:51:16.583Z,34.80
2023-02-02T06:53:46.163Z,16.40
2023-02-02T06:56:16.867Z,4.70
2023-02-02T06:58:44.656Z,5.30
2023-02-02T07:01:14.172Z,4.50
2023-02-02T07:03:45.111Z,1.00
2023-02-02T07:06:21.097Z,1.00
2023-02-02T07:09:02.036Z,1.00
2023-02-02T07:11:37.904Z,1.00
2023-02-02T07:14:09.002Z,1.00
2023-02-02T07:16:36.708Z,1.00
2023-02-02T07:19:04.603Z,1.00
2023-02-02T07:21:37.999Z,1.00
2023-02-02T07:24:06.212Z,1.00
2023-02-02T07:26:36.147Z,1.00
2023-02-02T07:29:06.701Z,1.00
2023-02-02T07:31:36.530Z,1.00
2023-02-02T07:34:04.957Z,1.00
2023-02-02T07:36:33.007Z,1.00
2023-02-02T07:39:07.788Z,1.00
2023-02-02T07:41:36.786Z,1.00
2023-02-02T07:44:05.178Z,1.00
2023-02-02T07:46:33.182Z,1.00
2023-02-02T07:49:03.772Z,1.00
2023-02-02T07:51:31.437Z,1.00
2023-02-02T07:53:59.431Z,1.00
2023-02-02T07:56:28.374Z,1.00
2023-02-02T07:58:59.600Z,1.00
2023-02-02T08:01:28.465Z,62.00
2023-02-02T08:04:00.565Z,99.90
2023-02-02T08:06:32.196Z,99.90
2023-02-02T08:09:01.251Z,99.90
2023-02-02T08:11:29.703Z,99.90
2023-02-02T08:14:02.382Z,99.90
2023-02-02T08:16:32.205Z,99.90
2023-02-02T08:19:00.196Z,99.90
2023-02-02T08:21:27.965Z,99.90
2023-02-02T08:23:55.930Z,99.90
2023-02-02T08:26:26.582Z,99.90
2023-02-02T08:28:57.286Z,99.90
2023-02-02T08:31:30.224Z,99.90
2023-02-02T08:33:58.582Z,99.90
2023-02-02T08:36:28.506Z,99.90
2023-02-02T08:38:56.518Z,99.90
2023-02-02T08:41:24.462Z,99.90
2023-02-02T08:43:52.151Z,99.90
2023-02-02T08:46:24.016Z,99.90
2023-02-02T08:48:51.717Z,99.90
2023-02-02T08:51:20.423Z,99.90
2023-02-02T08:53:48.267Z,99.90
2023-02-02T08:56:19.241Z,99.90
2023-02-02T08:58:49.313Z,99.90
2023-02-02T09:01:23.242Z,99.90
2023-02-02T09:03:55.527Z,99.90
2023-02-02T09:06:28.649Z,99.90
2023-02-02T09:08:56.530Z,99.90
2023-02-02T09:11:24.358Z,99.90
2023-02-02T09:13:56.430Z,99.90
2023-02-02T09:16:25.647Z,99.90
2023-02-02T09:18:54.062Z,99.90
2023-02-02T09:21:22.121Z,99.90
2023-02-02T09:23:51.480Z,99.90
2023-02-02T09:26:29.323Z,99.90
2023-02-02T09:29:02.678Z,99.90
2023-02-02T09:31:38.404Z,99.90
2023-02-02T09:34:11.681Z,99.90
2023-02-02T09:36:40.568Z,99.90
2023-02-02T09:39:10.468Z,99.90
2023-02-02T09:41:38.098Z,99.90
2023-02-02T09:44:24.534Z,99.90
2023-02-02T09:47:10.751Z,99.90
2023-02-02T09:49:52.019Z,99.90
2023-02-02T09:52:30.387Z,99.90
2023-02-02T09:55:09.709Z,99.90
2023-02-02T09:57:43.970Z,99.90
2023-02-02T10:00:33.866Z,99.90
2023-02-02T10:03:19.030Z,99.90
2023-02-02T10:06:19.719Z,99.90
2023-02-02T10:08:54.306Z,99.90
2023-02-02T10:11:28.154Z,99.90
2023-02-02T10:14:03.958Z,99.90
2023-02-02T10:16:33.503Z,99.90
2023-02-02T10:19:09.656Z,99.90
2023-02-02T10:21:46.243Z,99.90
2023-02-02T10:24:22.403Z,99.90
2023-02-02T10:27:21.041Z,99.90
2023-02-02T10:29:59.343Z,99.90
2023-02-02T10:32:28.546Z,99.90
2023-02-02T10:35:20.790Z,99.90
2023-02-02T10:38:02.930Z,99.90
2023-02-02T10:40:53.413Z,99.90
2023-02-02T10:43:39.524Z,99.90
2023-02-02T10:46:18.653Z,99.90
2023-02-02T10:48:48.387Z,99.90
2023-02-02T10:51:27.952Z,99.90
2023-02-02T10:53:59.918Z,99.90
2023-02-02T10:56:38.712Z,99.90
2023-02-02T10:59:17.944Z,99.90
2023-02-02T11:01:48.663Z,99.90
2023-02-02T11:04:39.157Z,99.90
2023-02-02T11:07:07.341Z,99.90
2023-02-02T11:09:41.170Z,99.90
2023-02-02T11:12:27.610Z,99.90
2023-02-02T11:15:23.634Z,99.90
2023-02-02T11:17:54.926Z,99.90
2023-02-02T11:20:46.539Z,99.90
2023-02-02T11:23:19.325Z,99.90
2023-02-02T11:25:57.820Z,99.90
2023-02-02T11:28:30.316Z,99.90
2023-02-02T11:31:03.138Z,99.90
2023-02-02T11:33:33.895Z,99.90
2023-02-02T11:36:17.485Z,99.90
2023-02-02T11:38:47.171Z,99.90
2023-02-02T11:41:23.366Z,99.90
2023-02-02T11:43:56.523Z,99.90
2023-02-02T11:46:30.936Z,99.90
2023-02-02T11:49:01.341Z,99.90
2023-02-02T11:51:30.982Z,99.90
2023-02-02T11:54:18.201Z,99.90
2023-02-02T11:56:51.802Z,99.90
2023-02-02T11:59:40.047Z,99.90
2023-02-02T12:02:19.334Z,99.90
2023-02-02T12:04:49.278Z,99.90
2023-02-02T12:07:33.255Z,99.90
2023-02-02T12:10:06.823Z,99.90
2023-02-02T12:12:45.344Z,99.90
2023-02-02T12:15:47.307Z,99.90
2023-02-02T12:18:36.212Z,99.90
2023-02-02T12:21:06.014Z,99.90
2023-02-02T12:23:59.632Z,99.90
2023-02-02T12:26:37.142Z,99.90
2023-02-02T12:29:11.499Z,99.90
2023-02-02T12:31:45.044Z,99.90
2023-02-02T12:34:36.719Z,99.90
2023-02-02T12:37:07.401Z,99.90
2023-02-02T12:40:28.651Z,99.90
2023-02-02T12:43:03.934Z,99.90
2023-02-02T12:45:46.587Z,99.90
2023-02-02T12:48:24.102Z,99.90
2023-02-02T12:50:54.688Z,99.90
2023-02-02T12:54:33.595Z,99.90
2023-02-02T12:56:51.830Z,99.90
2023-02-02T12:59:43.710Z,99.90
2023-02-02T13:02:58.955Z,99.90
2023-02-02T13:05:29.471Z,99.90
2023-02-02T13:08:10.420Z,99.90
2023-02-02T13:10:47.653Z,99.90
2023-02-02T13:13:20.398Z,99.90
2023-02-02T13:15:52.933Z,99.90
2023-02-02T13:18:31.494Z,99.90
2023-02-02T13:21:04.964Z,99.90
2023-02-02T13:23:40.356Z,99.90
2023-02-02T13:26:18.181Z,99.90
2023-02-02T13:29:12.274Z,99.90
2023-02-02T13:31:56.245Z,99.90
2023-02-02T13:34:39.272Z,99.90
2023-02-02T13:37:28.915Z,99.90
2023-02-02T13:40:02.964Z,99.90
2023-02-02T13:42:49.130Z,99.90
2023-02-02T13:45:39.645Z,99.90
2023-02-02T13:48:48.183Z,99.90
2023-02-02T13:51:37.315Z,99.90
2023-02-02T13:54:29.112Z,99.90
2023-02-02T13:57:27.632Z,99.90
2023-02-02T14:00:04.259Z,99.90
2023-02-02T14:02:44.024Z,99.90
2023-02-02T14:05:32.680Z,99.90
2023-02-02T14:08:03.489Z,99.90
2023-02-02T14:13:55.057Z,99.90
2023-02-02T14:19:29.382Z,99.90
2023-02-02T14:22:05.015Z,99.90
2023-02-02T14:24:48.944Z,99.90
2023-02-02T14:27:30.121Z,99.90
2023-02-02T14:30:00.147Z,99.90
2023-02-02T14:32:31.144Z,99.90
2023-02-02T14:35:14.349Z,99.90
2023-02-02T14:38:22.607Z,99.90
2023-02-02T14:41:08.357Z,99.90
2023-02-02T14:43:54.346Z,99.90
2023-02-02T14:46:34.724Z,99.90
2023-02-02T14:49:02.380Z,99.90
2023-02-02T14:51:35.018Z,99.90
2023-02-02T14:54:06.369Z,99.90
2023-02-02T14:57:04.028Z,99.90
2023-02-02T14:59:31.598Z,99.90
2023-02-02T15:02:30.669Z,99.90
2023-02-02T15:05:30.945Z,99.90
2023-02-02T15:08:27.869Z,99.90
2023-02-02T15:10:57.592Z,99.90
2023-02-02T15:13:37.348Z,99.90
2023-02-02T15:16:24.077Z,99.90
2023-02-02T15:19:00.529Z,99.90
2023-02-02T15:21:30.580Z,99.90
2023-02-02T15:23:58.843Z,99.90
2023-02-02T15:26:33.059Z,99.90
2023-02-02T15:29:13.713Z,99.90
2023-02-02T15:31:47.743Z,99.90
2023-02-02T15:34:24.709Z,99.90
2023-02-02T15:36:56.794Z,99.90
2023-02-02T15:39:39.864Z,99.90
2023-02-02T15:42:53.311Z,99.90
2023-02-02T15:45:43.593Z,99.90
2023-02-02T15:48:24.732Z,99.90
2023-02-02T15:50:55.505Z,99.90
2023-02-02T15:54:00.654Z,99.90
2023-02-02T15:56:39.399Z,99.90
2023-02-02T15:59:24.606Z,99.90
2023-02-02T16:02:07.560Z,99.90
2023-02-02T16:05:10.528Z,99.90
2023-02-02T16:07:39.223Z,99.90
2023-02-02T16:10:08.204Z,99.90
2023-02-02T16:12:35.822Z,99.90
2023-02-02T16:15:03.709Z,99.90
2023-02-02T16:17:35.480Z,99.90
2023-02-02T16:20:12.727Z,99.90
2023-02-02T16:22:42.192Z,99.90
2023-02-02T16:25:15.451Z,99.90
2023-02-02T16:27:46.427Z,99.90
2023-02-02T16:30:35.572Z,99.90
2023-02-02T16:33:37.146Z,99.90
2023-02-02T16:36:29.808Z,99.90
2023-02-02T16:39:01.364Z,99.90
2023-02-02T16:41:34.344Z,99.90
2023-02-02T16:44:38.771Z,99.90
2023-02-02T16:47:26.274Z,99.90
2023-02-02T16:49:54.625Z,99.90
2023-02-02T16:52:22.576Z,99.90
2023-02-02T16:54:55.717Z,99.90
2023-02-02T16:57:26.457Z,99.90
2023-02-02T16:59:57.323Z,99.90
2023-02-02T17:02:31.989Z,99.90
2023-02-02T17:05:17.615Z,99.90
2023-02-02T17:07:53.177Z,99.90
2023-02-02T17:10:25.746Z,99.90
2023-02-02T17:12:59.020Z,99.90
2023-02-02T17:15:35.720Z,99.90
2023-02-02T17:18:10.851Z,99.90
2023-02-02T17:20:40.380Z,99.90
2023-02-02T17:23:09.797Z,99.90
2023-02-02T17:25:42.341Z,99.90
2023-02-02T17:28:17.933Z,99.90
2023-02-02T17:30:55.714Z,99.90
2023-02-02T17:33:24.533Z,99.90
2023-02-02T17:35:55.801Z,99.90
2023-02-02T17:38:25.777Z,99.90
2023-02-02T17:41:00.847Z,99.90
2023-02-02T17:43:36.097Z,99.90
2023-02-02T17:46:04.392Z,99.90
2023-02-02T17:48:32.719Z,99.90
2023-02-02T17:51:03.133Z,99.90
2023-02-02T17:53:33.345Z,99.90
2023-02-02T17:56:01.205Z,99.90
2023-02-02T17:58:28.905Z,99.90
2023-02-02T18:00:58.963Z,99.90
2023-02-02T18:03:32.452Z,99.90
2023-02-02T18:06:04.727Z,99.90
2023-02-02T18:08:33.652Z,99.90
2023-02-02T18:11:01.416Z,99.90
2023-02-02T18:13:29.154Z,99.90
2023-02-02T18:15:59.353Z,99.90
2023-02-02T18:18:27.437Z,99.90
2023-02-02T18:20:55.154Z,99.90
2023-02-02T18:23:24.942Z,99.90
2023-02-02T18:25:52.950Z,99.90
2023-02-02T18:28:20.967Z,99.90
2023-02-02T18:30:48.795Z,99.90
2023-02-02T18:33:20.262Z,99.90
2023-02-02T18:35:48.439Z,99.90
2023-02-02T18:38:16.210Z,99.90
2023-02-02T18:40:55.100Z,99.90
2023-02-02T18:43:22.917Z,99.90
2023-02-02T18:45:58.674Z,99.90
2023-02-02T18:48:26.619Z,99.90
2023-02-02T18:50:57.870Z,99.90
2023-02-02T18:53:25.569Z,99.90
2023-02-02T18:55:53.354Z,99.90
2023-02-02T18:58:26.136Z,99.90
2023-02-02T19:00:53.723Z,99.90
2023-02-02T19:03:21.339Z,99.90
2023-02-02T19:06:08.849Z,99.90
2023-02-02T19:08:36.420Z,99.90
2023-02-02T19:11:14.403Z,99.90
2023-02-02T19:13:42.172Z,99.90
2023-02-02T19:16:31.292Z,99.90
2023-02-02T19:19:25.073Z,99.90
2023-02-02T19:21:56.353Z,99.90
2023-02-02T19:24:40.141Z,99.90
2023-02-02T19:27:20.334Z,99.90
2023-02-02T19:29:50.980Z,99.90
2023-02-02T19:32:35.850Z,99.90
2023-02-02T19:35:24.083Z,99.90
2023-02-02T19:38:01.304Z,99.90
2023-02-02T19:40:29.263Z,99.90
2023-02-02T19:43:14.122Z,99.90
2023-02-02T19:45:41.855Z,99.90
2023-02-02T19:48:22.522Z,99.90
2023-02-02T19:50:50.182Z,99.90
2023-02-02T19:53:20.886Z,99.90
2023-02-02T19:55:51.714Z,99.90
2023-02-02T19:58:25.513Z,99.90
2023-02-02T20:01:00.846Z,99.90
2023-02-02T20:03:43.167Z,99.90
2023-02-02T20:06:17.034Z,99.90
2023-02-02T20:08:44.981Z,99.90
2023-02-02T20:11:24.727Z,99.90
2023-02-02T20:13:53.019Z,99.90
2023-02-02T20:16:24.566Z,99.90
2023-02-02T20:18:57.228Z,99.90
2023-02-02T20:21:38.640Z,99.90
2023-02-02T20:24:19.468Z,99.90
2023-02-02T20:26:47.828Z,99.90
2023-02-02T20:29:22.666Z,99.90
2023-02-02T20:31:52.707Z,99.90
2023-02-02T20:34:33.360Z,99.90
2023-02-02T20:37:13.299Z,99.90
2023-02-02T20:39:59.088Z,99.90
2023-02-02T20:42:27.043Z,99.90
2023-02-02T20:44:55.386Z,99.90
2023-02-02T20:47:23.083Z,99.90
2023-02-02T20:49:53.830Z,99.90
2023-02-02T20:52:23.603Z,99.90
2023-02-02T20:54:51.912Z,99.90
2023-02-02T20:57:19.856Z,99.90
2023-02-02T20:59:57.555Z,99.90
2023-02-02T21:02:26.992Z,99.90
2023-02-02T21:04:54.792Z,99.90
2023-02-02T21:07:22.572Z,99.90
2023-02-02T21:09:51.156Z,99.90
2023-02-02T21:12:19.802Z,99.90
2023-02-02T21:14:47.573Z,99.90
2023-02-02T21:17:17.413Z,99.90
2023-02-02T21:19:45.078Z,99.90
2023-02-02T21:22:13.435Z,99.90
2023-02-02T21:24:41.247Z,99.90
2023-02-02T21:27:09.360Z,99.90
2023-02-02T21:29:37.452Z,99.90
2023-02-02T21:32:05.584Z,99.90
2023-02-02T21:34:33.862Z,99.90
2023-02-02T21:37:01.626Z,99.90
2023-02-02T21:39:32.185Z,99.90
2023-02-02T21:42:08.911Z,99.90
2023-02-02T21:44:43.438Z,99.90
2023-02-02T21:47:27.037Z,99.90
2023-02-02T21:50:13.629Z,99.90
2023-02-02T21:52:41.266Z,99.90
2023-02-02T21:55:28.423Z,99.90
2023-02-02T21:57:58.420Z,99.90
2023-02-02T22:00:32.389Z,99.90
2023-02-02T22:03:00.522Z,99.90
2023-02-02T22:05:36.529Z,99.90
2023-02-02T22:08:20.832Z,99.90
2023-02-02T22:10:57.201Z,99.90
2023-02-02T22:13:26.747Z,99.90
2023-02-02T22:15:54.384Z,99.90
2023-02-02T22:18:24.704Z,99.90
2023-02-02T22:20:54.544Z,99.90
2023-02-02T22:23:24.713Z,99.90
2023-02-02T22:25:54.779Z,99.90
2023-02-02T22:28:27.174Z,99.90
2023-02-02T22:30:58.981Z,99.90
2023-02-02T22:33:26.786Z,99.90
2023-02-02T22:35:55.177Z,99.90
2023-02-02T22:38:25.052Z,99.90
2023-02-02T22:40:53.186Z,99.90
2023-02-02T22:43:21.719Z,99.90
2023-02-02T22:45:49.468Z,99.90
2023-02-02T22:48:17.406Z,99.90
2023-02-02T22:50:45.111Z,99.90
2023-02-02T22:53:14.122Z,99.90
2023-02-02T22:55:42.910Z,99.90
2023-02-02T22:58:10.526Z,99.90
2023-02-02T23:00:38.115Z,99.90
2023-02-02T23:03:05.755Z,99.90
2023-02-02T23:05:33.443Z,99.90
2023-02-02T23:08:01.068Z,99.90
2023-02-02T23:10:34.943Z,99.90
2023-02-02T23:13:04.131Z,99.90
2023-02-02T23:15:32.715Z,99.90
2023-02-02T23:18:00.865Z,99.90
2023-02-02T23:20:28.961Z,99.90
2023-02-02T23:22:56.727Z,99.90
2023-02-02T23:25:24.395Z,99.90
2023-02-02T23:27:52.046Z,99.90
2023-02-02T23:30:22.146Z,99.90
2023-02-02T23:32:50.319Z,99.90
2023-02-02T23:35:18.098Z,99.90
2023-02-02T23:37:45.738Z,99.90
2023-02-02T23:40:13.662Z,99.90
2023-02-02T23:42:41.316Z,99.90
2023-02-02T23:45:09.516Z,99.90
2023-02-02T23:47:39.027Z,99.90
2023-02-02T23:50:09.237Z,99.90
2023-02-02T23:52:37.372Z,99.90
2023-02-02T23:55:05.822Z,99.90
2023-02-02T23:57:33.898Z,99.90
